createdAt,value
2023-03-31T00:01:42.161Z,8.58
2023-03-31T00:04:52.924Z,8.56
2023-03-31T00:08:01.012Z,8.53
2023-03-31T00:11:04.841Z,8.57
2023-03-31T00:14:08.060Z,8.52
2023-03-31T00:17:11.648Z,8.55
2023-03-31T00:20:14.935Z,8.65
2023-03-31T00:23:17.996Z,8.63
2023-03-31T00:26:20.465Z,8.62
2023-03-31T00:29:23.219Z,8.62
2023-03-31T00:32:26.051Z,8.53
2023-03-31T00:35:28.652Z,8.49
2023-03-31T00:38:31.100Z,8.47
2023-03-31T00:41:33.955Z,8.40
2023-03-31T00:44:40.871Z,8.41
2023-03-31T00:47:45.218Z,8.35
2023-03-31T00:50:51.560Z,8.27
2023-03-31T00:54:02.002Z,8.20
2023-03-31T00:57:06.737Z,8.19
2023-03-31T01:00:15.273Z,8.37
2023-03-31T01:03:18.605Z,8.55
2023-03-31T01:06:21.262Z,8.54
2023-03-31T01:09:25.020Z,8.50
2023-03-31T01:12:27.719Z,8.47
2023-03-31T01:15:31.334Z,8.44
2023-03-31T01:18:36.933Z,8.42
2023-03-31T01:21:53.844Z,8.36
2023-03-31T01:25:15.541Z,8.38
2023-03-31T01:28:23.856Z,8.39
2023-03-31T01:31:29.444Z,8.32
2023-03-31T01:34:50.790Z,8.24
2023-03-31T01:38:07.738Z,8.35
2023-03-31T01:41:19.272Z,8.34
2023-03-31T01:44:21.965Z,8.24
2023-03-31T01:47:27.069Z,8.18
2023-03-31T01:50:32.856Z,8.19
2023-03-31T01:53:47.435Z,8.10
2023-03-31T01:56:54.035Z,8.20
2023-03-31T02:00:03.528Z,8.21
2023-03-31T02:03:17.765Z,8.55
2023-03-31T02:06:24.506Z,8.75
2023-03-31T02:09:30.411Z,8.83
2023-03-31T02:12:34.229Z,8.94
2023-03-31T02:15:39.546Z,9.10
2023-03-31T02:18:42.446Z,9.20
2023-03-31T02:21:48.607Z,9.30
2023-03-31T02:24:52.323Z,9.27
2023-03-31T02:27:58.161Z,9.27
2023-03-31T02:31:19.197Z,9.18
2023-03-31T02:34:22.095Z,9.26
2023-03-31T02:37:25.015Z,9.12
2023-03-31T02:40:27.828Z,9.09
2023-03-31T02:43:30.288Z,9.00
2023-03-31T02:46:33.213Z,8.85
2023-03-31T02:49:37.815Z,8.76
2023-03-31T02:52:40.577Z,8.57
2023-03-31T02:55:46.160Z,8.46
2023-03-31T02:59:00.152Z,8.53
2023-03-31T03:02:22.000Z,8.32
2023-03-31T03:05:45.881Z,8.42
2023-03-31T03:09:17.125Z,8.38
2023-03-31T03:12:25.256Z,8.13
2023-03-31T03:15:49.114Z,8.01
2023-03-31T03:18:59.414Z,7.85
2023-03-31T03:22:01.761Z,7.74
2023-03-31T03:25:05.185Z,7.65
2023-03-31T03:28:07.839Z,7.55
2023-03-31T03:31:10.556Z,7.50
2023-03-31T03:34:13.229Z,7.54
2023-03-31T03:37:16.015Z,7.55
2023-03-31T03:40:18.506Z,7.54
2023-03-31T03:43:21.245Z,7.55
2023-03-31T03:46:23.635Z,7.62
2023-03-31T03:49:26.484Z,7.57
2023-03-31T03:52:28.766Z,7.65
2023-03-31T03:55:31.313Z,7.66
2023-03-31T03:58:34.361Z,7.55
2023-03-31T04:01:37.363Z,7.49
2023-03-31T04:04:40.074Z,7.50
2023-03-31T04:07:42.338Z,7.40
2023-03-31T04:10:45.916Z,7.32
2023-03-31T04:13:48.361Z,7.26
2023-03-31T04:16:51.074Z,7.24
2023-03-31T04:19:53.362Z,7.27
2023-03-31T04:22:56.125Z,7.40
2023-03-31T04:25:58.468Z,7.38
2023-03-31T04:29:01.138Z,7.41
2023-03-31T04:32:03.534Z,7.42
2023-03-31T04:35:06.745Z,7.44
2023-03-31T04:38:09.987Z,7.37
2023-03-31T04:41:13.435Z,7.33
2023-03-31T04:44:15.837Z,7.36
2023-03-31T04:47:18.517Z,7.32
2023-03-31T04:50:20.923Z,7.27
2023-03-31T04:53:23.592Z,7.24
2023-03-31T04:56:26.719Z,7.27
2023-03-31T04:59:29.562Z,7.29
2023-03-31T05:02:32.007Z,7.33
2023-03-31T05:05:34.705Z,7.33
2023-03-31T05:08:37.367Z,7.39
2023-03-31T05:11:39.998Z,7.45
2023-03-31T05:14:42.346Z,7.50
2023-03-31T05:17:45.007Z,7.56
2023-03-31T05:20:47.602Z,7.66
2023-03-31T05:23:50.379Z,7.79
2023-03-31T05:26:52.930Z,7.90
2023-03-31T05:29:56.005Z,8.01
2023-03-31T05:32:58.386Z,8.16
2023-03-31T05:36:01.478Z,8.31
2023-03-31T05:39:05.192Z,8.47
2023-03-31T05:42:07.917Z,8.66
2023-03-31T05:45:10.305Z,8.96
2023-03-31T05:48:13.020Z,10.70
2023-03-31T05:51:15.401Z,14.75
2023-03-31T05:54:18.094Z,18.14
2023-03-31T05:57:20.457Z,19.92
2023-03-31T06:00:23.375Z,20.60
2023-03-31T06:03:26.245Z,21.62
2023-03-31T06:06:28.756Z,23.34
2023-03-31T06:09:31.536Z,24.56
2023-03-31T06:12:41.862Z,25.02
2023-03-31T06:15:52.449Z,25.31
2023-03-31T06:18:55.807Z,25.85
2023-03-31T06:21:58.425Z,26.74
2023-03-31T06:25:00.884Z,27.64
2023-03-31T06:28:03.674Z,27.73
2023-03-31T06:31:08.467Z,27.90
2023-03-31T06:34:11.339Z,26.42
2023-03-31T06:37:13.730Z,25.42
2023-03-31T06:40:16.650Z,25.48
2023-03-31T06:43:19.148Z,23.02
2023-03-31T06:46:21.823Z,23.31
2023-03-31T06:49:24.311Z,23.21
2023-03-31T06:52:28.011Z,23.78
2023-03-31T06:55:30.466Z,25.23
2023-03-31T06:58:33.572Z,25.72
2023-03-31T07:01:39.053Z,24.37
2023-03-31T07:04:41.613Z,23.21
2023-03-31T07:07:46.149Z,22.72
2023-03-31T07:10:50.319Z,23.24
2023-03-31T07:13:53.265Z,25.73
2023-03-31T07:16:55.912Z,27.99
2023-03-31T07:19:58.950Z,27.45
2023-03-31T07:23:03.661Z,26.78
2023-03-31T07:26:06.331Z,26.70
2023-03-31T07:29:09.114Z,28.63
2023-03-31T07:32:11.664Z,30.21
2023-03-31T07:35:14.414Z,31.15
2023-03-31T07:38:16.902Z,32.20
2023-03-31T07:41:20.631Z,33.47
2023-03-31T07:44:24.660Z,34.54
2023-03-31T07:47:28.007Z,32.99
2023-03-31T07:50:30.493Z,29.56
2023-03-31T07:53:33.931Z,29.09
2023-03-31T07:56:36.477Z,27.47
2023-03-31T07:59:39.170Z,25.51
2023-03-31T08:02:43.054Z,25.01
2023-03-31T08:05:46.124Z,26.08
2023-03-31T08:08:49.765Z,25.90
2023-03-31T08:11:52.540Z,26.02
2023-03-31T08:14:54.783Z,25.69
2023-03-31T08:17:57.462Z,23.75
2023-03-31T08:20:59.853Z,22.66
2023-03-31T08:24:02.446Z,21.95
2023-03-31T08:27:04.966Z,22.02
2023-03-31T08:30:09.071Z,21.92
2023-03-31T08:33:12.433Z,21.95
2023-03-31T08:36:15.392Z,22.19
2023-03-31T08:39:18.367Z,20.66
2023-03-31T08:42:32.579Z,20.41
2023-03-31T08:45:36.332Z,21.29
2023-03-31T08:48:48.899Z,22.36
2023-03-31T08:51:54.401Z,21.83
2023-03-31T08:54:59.582Z,21.61
2023-03-31T08:58:09.211Z,20.04
2023-03-31T09:01:16.875Z,19.36
2023-03-31T09:04:25.942Z,18.82
2023-03-31T09:07:47.182Z,18.11
2023-03-31T09:10:58.469Z,17.90
2023-03-31T09:14:01.280Z,17.49
2023-03-31T09:17:23.996Z,17.86
2023-03-31T09:20:39.662Z,17.89
2023-03-31T09:23:48.300Z,17.68
2023-03-31T09:27:12.243Z,17.79
2023-03-31T09:30:18.176Z,18.18
2023-03-31T09:33:24.146Z,18.38
2023-03-31T09:36:27.028Z,18.34
2023-03-31T09:39:29.681Z,18.63
2023-03-31T09:42:32.125Z,18.74
2023-03-31T09:45:36.387Z,18.47
2023-03-31T09:48:40.192Z,18.87
2023-03-31T09:51:46.108Z,19.23
2023-03-31T09:54:50.018Z,19.12
2023-03-31T09:57:53.173Z,18.86
2023-03-31T10:01:00.805Z,19.18
2023-03-31T10:04:08.706Z,19.06
2023-03-31T10:07:11.948Z,18.90
2023-03-31T10:10:31.131Z,18.80
2023-03-31T10:13:58.954Z,18.84
2023-03-31T10:17:04.462Z,18.97
2023-03-31T10:20:19.064Z,19.06
2023-03-31T10:23:27.625Z,19.13
2023-03-31T10:26:29.989Z,19.62
2023-03-31T10:29:34.221Z,20.17
2023-03-31T10:32:42.953Z,20.13
2023-03-31T10:35:49.026Z,20.15
2023-03-31T10:38:52.780Z,19.74
2023-03-31T10:41:55.524Z,19.42
2023-03-31T10:45:35.801Z,19.01
2023-03-31T10:48:41.494Z,18.93
2023-03-31T10:51:52.427Z,19.01
2023-03-31T10:54:57.343Z,19.47
2023-03-31T10:58:06.464Z,19.84
2023-03-31T11:01:21.583Z,20.16
2023-03-31T11:04:43.458Z,20.27
2023-03-31T11:07:49.176Z,20.49
2023-03-31T11:10:51.585Z,20.43
2023-03-31T11:14:03.306Z,20.27
2023-03-31T11:17:20.458Z,20.19
2023-03-31T11:20:26.189Z,20.11
2023-03-31T11:23:37.856Z,19.87
2023-03-31T11:26:52.721Z,20.01
2023-03-31T11:30:04.372Z,20.11
2023-03-31T11:33:19.279Z,20.36
2023-03-31T11:36:26.176Z,20.70
2023-03-31T11:39:37.339Z,20.51
2023-03-31T11:42:48.339Z,20.94
2023-03-31T11:45:54.009Z,20.82
2023-03-31T11:49:04.928Z,20.95
2023-03-31T11:52:13.699Z,21.19
2023-03-31T11:55:16.131Z,21.43
2023-03-31T11:58:22.994Z,21.98
2023-03-31T12:01:29.290Z,22.16
2023-03-31T12:04:37.331Z,21.91
2023-03-31T12:07:54.866Z,21.79
2023-03-31T12:11:03.101Z,21.40
2023-03-31T12:14:19.017Z,20.97
2023-03-31T12:17:26.059Z,20.14
2023-03-31T12:20:28.431Z,20.04
2023-03-31T12:23:34.145Z,20.09
2023-03-31T12:26:52.570Z,20.17
2023-03-31T12:29:58.526Z,20.47
2023-03-31T12:33:11.519Z,20.68
2023-03-31T12:36:49.775Z,20.94
2023-03-31T12:40:11.548Z,21.24
2023-03-31T12:43:20.302Z,20.87
2023-03-31T12:46:35.428Z,20.81
2023-03-31T12:49:51.577Z,21.08
2023-03-31T12:53:09.318Z,21.01
2023-03-31T12:56:11.939Z,21.13
2023-03-31T12:59:18.354Z,20.79
2023-03-31T13:02:26.509Z,20.81
2023-03-31T13:05:38.277Z,20.97
2023-03-31T13:09:04.304Z,21.01
2023-03-31T13:12:07.975Z,20.79
2023-03-31T13:15:14.204Z,20.27
2023-03-31T13:18:19.772Z,19.74
2023-03-31T13:21:23.195Z,19.54
2023-03-31T13:24:26.639Z,19.93
2023-03-31T13:27:35.668Z,20.09
2023-03-31T13:30:41.309Z,20.22
2023-03-31T13:33:57.265Z,19.79
2023-03-31T13:36:59.638Z,19.55
2023-03-31T13:40:12.341Z,19.56
2023-03-31T13:43:17.423Z,19.49
2023-03-31T13:46:32.466Z,19.13
2023-03-31T13:49:35.111Z,19.03
2023-03-31T13:52:37.771Z,19.21
2023-03-31T13:55:46.813Z,19.54
2023-03-31T13:59:01.487Z,19.70
2023-03-31T14:02:22.707Z,19.58
2023-03-31T14:05:31.282Z,19.63
2023-03-31T14:08:39.941Z,19.53
2023-03-31T14:11:42.716Z,19.19
2023-03-31T14:14:45.233Z,18.99
2023-03-31T14:17:48.376Z,19.02
2023-03-31T14:21:11.273Z,18.92
2023-03-31T14:24:22.024Z,18.99
2023-03-31T14:27:25.628Z,18.89
2023-03-31T14:30:29.447Z,19.21
2023-03-31T14:33:37.806Z,19.73
2023-03-31T14:36:41.791Z,20.31
2023-03-31T14:39:46.192Z,20.18
2023-03-31T14:42:51.788Z,20.28
2023-03-31T14:45:58.166Z,19.97
2023-03-31T14:49:06.118Z,19.43
2023-03-31T14:52:18.993Z,19.41
2023-03-31T14:55:35.654Z,19.24
2023-03-31T14:58:49.672Z,19.22
2023-03-31T15:01:52.435Z,19.21
2023-03-31T15:04:56.619Z,19.19
2023-03-31T15:08:02.206Z,18.94
2023-03-31T15:14:14.653Z,18.19
2023-03-31T15:17:19.009Z,18.14
2023-03-31T15:20:28.064Z,17.96
2023-03-31T15:23:30.751Z,18.03
2023-03-31T15:26:53.661Z,18.00
2023-03-31T15:29:58.835Z,18.02
2023-03-31T15:33:15.579Z,17.77
2023-03-31T15:36:21.194Z,17.66
2023-03-31T15:39:25.121Z,17.38
2023-03-31T15:42:28.437Z,17.27
2023-03-31T15:45:31.235Z,17.20
2023-03-31T15:48:35.115Z,17.12
2023-03-31T15:51:41.344Z,17.08
2023-03-31T15:54:48.470Z,17.03
2023-03-31T15:58:01.530Z,16.94
2023-03-31T16:01:05.134Z,16.88
2023-03-31T16:04:09.955Z,16.82
2023-03-31T16:07:20.351Z,16.71
2023-03-31T16:10:23.428Z,16.58
2023-03-31T16:13:26.398Z,16.52
2023-03-31T16:16:29.808Z,16.52
2023-03-31T16:19:41.592Z,16.57
2023-03-31T16:22:46.142Z,16.66
2023-03-31T16:25:48.527Z,16.55
2023-03-31T16:28:52.867Z,16.37
2023-03-31T16:32:27.809Z,16.12
2023-03-31T16:35:36.869Z,15.94
2023-03-31T16:38:39.287Z,15.75
2023-03-31T16:41:41.989Z,15.60
2023-03-31T16:44:49.939Z,15.50
2023-03-31T16:48:02.243Z,15.37
2023-03-31T16:51:16.963Z,15.30
2023-03-31T16:54:19.862Z,15.22
2023-03-31T16:57:22.974Z,15.16
2023-03-31T17:00:26.628Z,15.15
2023-03-31T17:03:29.031Z,15.11
2023-03-31T17:06:31.672Z,15.09
2023-03-31T17:09:34.082Z,15.04
2023-03-31T17:12:36.833Z,14.99
2023-03-31T17:15:40.027Z,14.95
2023-03-31T17:18:42.617Z,14.87
2023-03-31T17:21:44.952Z,14.70
2023-03-31T17:24:48.870Z,14.70
2023-03-31T17:27:51.612Z,14.71
2023-03-31T17:30:54.673Z,14.60
2023-03-31T17:33:58.562Z,14.52
2023-03-31T17:37:02.454Z,14.57
2023-03-31T17:40:05.361Z,14.53
2023-03-31T17:43:08.198Z,14.38
2023-03-31T17:46:11.857Z,14.35
2023-03-31T17:49:15.896Z,14.29
2023-03-31T17:52:18.254Z,14.25
2023-03-31T17:55:21.025Z,14.25
2023-03-31T17:58:23.522Z,14.33
2023-03-31T18:01:26.313Z,14.26
2023-03-31T18:04:29.619Z,14.38
2023-03-31T18:07:32.198Z,14.31
2023-03-31T18:10:35.370Z,14.30
2023-03-31T18:13:38.833Z,14.31
2023-03-31T18:16:41.776Z,14.28
2023-03-31T18:19:44.551Z,14.20
2023-03-31T18:22:47.744Z,14.13
2023-03-31T18:25:50.070Z,14.04
2023-03-31T18:28:53.061Z,13.92
2023-03-31T18:31:55.383Z,13.87
2023-03-31T18:34:58.137Z,13.84
2023-03-31T18:38:00.568Z,13.78
2023-03-31T18:41:03.713Z,13.71
2023-03-31T18:44:06.109Z,13.69
2023-03-31T18:47:08.811Z,13.64
2023-03-31T18:50:11.422Z,13.62
2023-03-31T18:53:15.429Z,13.65
2023-03-31T18:56:17.767Z,13.64
2023-03-31T18:59:20.374Z,13.64
2023-03-31T19:02:22.770Z,13.63
2023-03-31T19:05:25.409Z,13.54
2023-03-31T19:08:27.781Z,13.44
2023-03-31T19:11:30.647Z,13.42
2023-03-31T19:14:36.108Z,13.38
2023-03-31T19:17:38.745Z,13.32
2023-03-31T19:20:46.402Z,13.29
2023-03-31T19:23:49.158Z,13.28
2023-03-31T19:26:51.467Z,13.26
2023-03-31T19:29:54.214Z,13.21
2023-03-31T19:32:56.583Z,13.03
2023-03-31T19:35:59.425Z,12.93
2023-03-31T19:39:02.243Z,12.71
2023-03-31T19:42:05.347Z,12.56
2023-03-31T19:45:08.260Z,12.46
2023-03-31T19:48:11.582Z,12.27
2023-03-31T19:51:14.199Z,12.17
2023-03-31T19:54:17.430Z,12.02
2023-03-31T19:57:19.733Z,11.90
2023-03-31T20:00:22.926Z,11.72
2023-03-31T20:03:26.308Z,11.48
2023-03-31T20:06:29.995Z,11.38
2023-03-31T20:09:32.746Z,11.25
2023-03-31T20:12:35.019Z,11.19
2023-03-31T20:15:39.739Z,11.06
2023-03-31T20:18:49.140Z,10.91
2023-03-31T20:21:57.661Z,10.87
2023-03-31T20:25:00.970Z,10.83
2023-03-31T20:28:04.147Z,10.83
2023-03-31T20:31:07.606Z,10.79
2023-03-31T20:34:12.873Z,10.66
2023-03-31T20:37:15.342Z,10.66
2023-03-31T20:40:18.052Z,10.53
2023-03-31T20:43:20.764Z,10.38
2023-03-31T20:46:23.758Z,10.21
2023-03-31T20:49:26.322Z,10.13
2023-03-31T20:52:29.508Z,10.09
2023-03-31T20:55:32.559Z,9.99
2023-03-31T20:58:35.626Z,9.92
2023-03-31T21:01:38.062Z,9.90
2023-03-31T21:04:41.064Z,9.87
2023-03-31T21:07:43.406Z,9.88
2023-03-31T21:10:46.551Z,9.84
2023-03-31T21:13:49.025Z,9.85
2023-03-31T21:16:51.689Z,9.84
2023-03-31T21:19:54.019Z,9.85
2023-03-31T21:22:57.377Z,9.86
2023-03-31T21:26:01.168Z,9.90
2023-03-31T21:29:03.682Z,9.83
2023-03-31T21:32:07.003Z,9.86
2023-03-31T21:35:09.767Z,9.81
2023-03-31T21:38:12.246Z,9.81
2023-03-31T21:41:16.515Z,9.76
2023-03-31T21:44:18.804Z,9.86
2023-03-31T21:47:22.199Z,9.81
2023-03-31T21:50:24.554Z,9.74
2023-03-31T21:53:28.734Z,9.84
2023-03-31T21:56:31.860Z,9.81
2023-03-31T21:59:35.336Z,9.92
2023-03-31T22:02:40.598Z,10.00
2023-03-31T22:05:43.195Z,10.11
2023-03-31T22:08:45.651Z,10.09
2023-03-31T22:11:48.234Z,10.13
2023-03-31T22:14:50.503Z,10.10
2023-03-31T22:17:53.088Z,10.01
2023-03-31T22:20:56.850Z,9.98
2023-03-31T22:24:00.744Z,10.09
2023-03-31T22:27:03.118Z,9.98
2023-03-31T22:30:06.028Z,10.02
2023-03-31T22:33:08.717Z,10.12
2023-03-31T22:36:11.404Z,10.20
2023-03-31T22:39:14.348Z,10.25
2023-03-31T22:42:16.990Z,10.37
2023-03-31T22:45:19.321Z,10.37
2023-03-31T22:48:22.792Z,10.39
2023-03-31T22:51:25.716Z,10.53
2023-03-31T22:54:28.438Z,10.60
2023-03-31T22:57:31.073Z,10.48
2023-03-31T23:00:33.827Z,10.46
2023-03-31T23:03:36.435Z,10.48
2023-03-31T23:06:39.131Z,10.32
2023-03-31T23:09:41.701Z,10.20
2023-03-31T23:12:44.307Z,10.09
2023-03-31T23:15:46.687Z,9.96
2023-03-31T23:18:51.721Z,9.88
2023-03-31T23:21:54.073Z,9.81
2023-03-31T23:24:56.646Z,9.73
2023-03-31T23:27:58.926Z,9.73
2023-03-31T23:31:01.640Z,9.65
2023-03-31T23:34:03.937Z,9.56
2023-03-31T23:37:12.550Z,9.56
2023-03-31T23:40:14.906Z,9.40
2023-03-31T23:43:17.495Z,9.27
2023-03-31T23:46:20.584Z,9.20
2023-03-31T23:49:23.421Z,9.16
2023-03-31T23:52:25.763Z,9.09
2023-03-31T23:55:29.178Z,9.03
2023-03-31T23:58:32.059Z,8.98
